Time;durP1;ratioP1;P1;durP2;ratioP2;P2;SDS_P1;SDS_P2;PMS_P1;PMS_P2;Temp;Humidity;BMP_temperature;BMP_pressure;BME280_temperature;BME280_humidity;BME280_pressure;Samples;Min_cycle;Max_cycle;Signal;HPM_P1;HPM_P2
2023/08/04 00:01:50;;;;;;;4.20;3.47;;;22.40;78.80;;;;;;5113368;28;20019;-79
2023/08/04 00:04:16;;;;;;;5.05;3.97;;;22.40;78.60;;;;;;5147686;27;20031;-79
2023/08/04 00:06:41;;;;;;;4.80;3.80;;;22.40;78.60;;;;;;5140632;27;20027;-79
2023/08/04 00:09:07;;;;;;;7.32;4.75;;;22.40;78.60;;;;;;5122030;28;20027;-79
2023/08/04 00:11:32;;;;;;;7.03;4.85;;;22.40;78.60;;;;;;5140869;27;20390;-79
2023/08/04 00:13:58;;;;;;;7.00;5.22;;;22.40;78.50;;;;;;5121988;28;20031;-79
2023/08/04 00:16:24;;;;;;;7.80;5.18;;;22.40;78.30;;;;;;5139908;28;20047;-79
2023/08/04 00:18:49;;;;;;;6.45;4.55;;;22.40;78.40;;;;;;5121719;28;20079;-79
2023/08/04 00:21:15;;;;;;;4.95;4.18;;;22.40;78.20;;;;;;5140639;28;20023;-79
2023/08/04 00:23:41;;;;;;;4.32;3.78;;;22.40;78.30;;;;;;5121586;28;20041;-79
2023/08/04 00:26:06;;;;;;;4.22;3.72;;;22.40;78.90;;;;;;5121341;28;20035;-79
2023/08/04 00:28:32;;;;;;;4.63;3.97;;;22.40;78.20;;;;;;5122241;28;20027;-79
2023/08/04 00:30:57;;;;;;;4.35;3.80;;;22.40;78.30;;;;;;5122763;28;20088;-79
2023/08/04 00:33:24;;;;;;;4.20;3.50;;;22.40;78.30;;;;;;5140610;28;20031;-79
2023/08/04 00:35:49;;;;;;;3.80;3.38;;;22.30;78.20;;;;;;5140108;28;20023;-79
2023/08/04 00:38:15;;;;;;;4.43;3.88;;;22.40;78.30;;;;;;5140615;28;20162;-79
2023/08/04 00:40:41;;;;;;;4.30;3.60;;;22.40;78.40;;;;;;5140414;28;20039;-79
2023/08/04 00:43:07;;;;;;;4.38;3.30;;;22.30;78.30;;;;;;5122541;28;20031;-79
2023/08/04 00:45:33;;;;;;;5.00;4.15;;;22.40;78.40;;;;;;5124014;28;20104;-79
2023/08/04 00:48:00;;;;;;;4.30;3.80;;;22.30;78.30;;;;;;5142378;28;20759;-79
2023/08/04 00:50:27;;;;;;;3.92;3.60;;;22.30;78.40;;;;;;5123846;28;20027;-79
2023/08/04 00:52:53;;;;;;;3.88;3.47;;;22.30;78.50;;;;;;5124666;28;20065;-79
2023/08/04 00:55:19;;;;;;;4.68;4.00;;;22.30;78.70;;;;;;5124588;28;20024;-79
2023/08/04 00:57:46;;;;;;;4.15;3.75;;;22.30;78.70;;;;;;5143036;28;20074;-79
2023/08/04 01:00:12;;;;;;;4.38;3.97;;;22.30;78.80;;;;;;5125740;28;20023;-79
2023/08/04 01:02:38;;;;;;;6.38;4.25;;;22.30;79.00;;;;;;5145218;27;20019;-79
2023/08/04 01:05:05;;;;;;;4.47;4.07;;;22.30;79.00;;;;;;5148206;27;20111;-79
2023/08/04 01:07:53;;;;;;;4.72;4.07;;;22.20;79.10;;;;;;5148005;27;20027;-79
2023/08/04 01:10:46;;;;;;;4.22;3.70;;;22.30;79.20;;;;;;5128919;27;20023;-79
2023/08/04 01:13:18;;;;;;;5.57;3.90;;;22.20;79.40;;;;;;5145045;27;20037;-79
2023/08/04 01:15:44;;;;;;;4.00;3.60;;;22.20;79.50;;;;;;5126020;27;20440;-79
2023/08/04 01:18:10;;;;;;;4.57;3.92;;;22.20;79.60;;;;;;5142599;27;20047;-79
2023/08/04 01:20:35;;;;;;;5.07;4.00;;;22.20;79.60;;;;;;5117812;27;20055;-80
2023/08/04 01:23:01;;;;;;;5.53;4.28;;;22.10;79.60;;;;;;5117858;27;20051;-80
2023/08/04 01:25:35;;;;;;;4.85;4.00;;;22.20;79.60;;;;;;5117674;27;20731;-79
2023/08/04 01:28:05;;;;;;;6.20;4.60;;;22.20;79.50;;;;;;5136037;27;20027;-80
2023/08/04 01:30:32;;;;;;;6.22;4.18;;;22.10;79.60;;;;;;5117236;27;20023;-80
2023/08/04 01:32:58;;;;;;;4.43;4.03;;;22.10;79.40;;;;;;5115679;27;20038;-80
2023/08/04 01:35:24;;;;;;;4.40;4.00;;;22.10;79.50;;;;;;5135720;27;20474;-80
2023/08/04 01:37:50;;;;;;;5.47;4.80;;;22.10;79.40;;;;;;5115985;27;20027;-80
2023/08/04 01:40:15;;;;;;;5.13;4.60;;;22.10;79.40;;;;;;5135211;27;20019;-80
2023/08/04 01:42:41;;;;;;;5.20;4.57;;;22.10;79.30;;;;;;5135182;27;20090;-80
2023/08/04 01:45:07;;;;;;;5.15;4.65;;;22.10;79.20;;;;;;5116887;27;20042;-80
2023/08/04 01:47:33;;;;;;;4.95;4.18;;;22.10;78.90;;;;;;5125278;27;20110;-80
2023/08/04 01:49:59;;;;;;;7.65;4.90;;;22.10;78.90;;;;;;5095964;28;20114;-80
2023/08/04 01:52:25;;;;;;;5.30;4.80;;;22.10;78.90;;;;;;5114219;28;20527;-80
2023/08/04 01:54:50;;;;;;;5.85;4.88;;;22.10;78.90;;;;;;5095439;28;20142;-80
2023/08/04 01:57:16;;;;;;;6.18;5.22;;;22.10;78.90;;;;;;5095494;28;20421;-80
2023/08/04 01:59:41;;;;;;;5.82;4.90;;;22.10;79.50;;;;;;5113941;28;20034;-80
2023/08/04 02:02:08;;;;;;;5.28;4.78;;;22.10;78.90;;;;;;5095986;28;20391;-80
2023/08/04 02:04:34;;;;;;;5.90;4.80;;;22.10;78.90;;;;;;5109790;27;20750;-80
2023/08/04 02:06:59;;;;;;;5.25;4.53;;;22.10;79.10;;;;;;5116205;27;20031;-80
2023/08/04 02:09:27;;;;;;;5.00;4.50;;;22.10;79.10;;;;;;5135045;27;20054;-80
2023/08/04 02:11:54;;;;;;;5.28;4.45;;;22.10;79.20;;;;;;5134078;27;20106;-80
2023/08/04 02:14:20;;;;;;;5.15;4.22;;;22.10;79.20;;;;;;5134671;27;20023;-80
2023/08/04 02:16:45;;;;;;;5.15;4.43;;;22.10;79.20;;;;;;5115873;27;20043;-80
2023/08/04 02:19:11;;;;;;;4.65;4.10;;;22.00;79.30;;;;;;5110798;27;20028;-79
2023/08/04 02:21:37;;;;;;;5.28;4.10;;;22.00;80.00;;;;;;5074462;28;20111;-80
2023/08/04 02:24:03;;;;;;;5.50;4.40;;;22.00;79.40;;;;;;5093010;28;20025;-80
2023/08/04 02:26:29;;;;;;;5.65;4.35;;;22.00;79.50;;;;;;5092907;28;20471;-80
2023/08/04 02:28:56;;;;;;;4.50;4.05;;;22.00;79.50;;;;;;5091619;28;20125;-80
2023/08/04 02:31:23;;;;;;;5.18;4.15;;;21.90;79.60;;;;;;5074546;28;20054;-80
2023/08/04 02:33:49;;;;;;;6.32;4.70;;;21.90;79.60;;;;;;5093142;28;20034;-80
2023/08/04 02:36:15;;;;;;;5.28;4.47;;;21.90;79.70;;;;;;5091961;28;20548;-80
2023/08/04 02:38:41;;;;;;;5.32;4.38;;;21.90;79.70;;;;;;5092261;28;20028;-80
2023/08/04 02:41:09;;;;;;;4.60;4.10;;;21.90;79.70;;;;;;5093414;28;20035;-80
2023/08/04 02:43:35;;;;;;;4.60;4.10;;;21.90;79.80;;;;;;5092089;28;20502;-80
2023/08/04 02:46:01;;;;;;;5.32;4.20;;;21.90;79.80;;;;;;5092715;28;20024;-80
2023/08/04 02:48:26;;;;;;;6.13;4.47;;;21.90;79.90;;;;;;5093516;28;20165;-80
2023/08/04 02:51:10;;;;;;;7.47;4.63;;;21.80;79.80;;;;;;5092067;28;20391;-80
2023/08/04 02:53:43;;;;;;;5.57;4.78;;;21.80;79.60;;;;;;5093531;28;20720;-80
2023/08/04 02:56:14;;;;;;;4.80;4.20;;;21.80;79.60;;;;;;5093361;28;20037;-80
2023/08/04 02:58:42;;;;;;;4.97;4.45;;;21.80;79.70;;;;;;5092054;28;20024;-80
2023/08/04 03:01:08;;;;;;;4.85;4.20;;;21.80;79.70;;;;;;5093335;28;20099;-80
2023/08/04 03:03:34;;;;;;;5.90;4.65;;;21.80;79.70;;;;;;5091733;28;20527;-80
2023/08/04 03:06:01;;;;;;;5.88;4.93;;;21.80;79.60;;;;;;5092936;28;20491;-80
2023/08/04 03:08:27;;;;;;;6.18;5.57;;;21.80;79.40;;;;;;5093236;28;20077;-80
2023/08/04 03:10:53;;;;;;;8.48;5.65;;;21.90;79.20;;;;;;5092739;28;20020;-80
2023/08/04 03:13:18;;;;;;;5.65;5.00;;;21.90;79.10;;;;;;5074691;28;20155;-80
2023/08/04 03:15:44;;;;;;;6.72;6.03;;;21.90;79.00;;;;;;5091225;28;20109;-79
2023/08/04 03:18:10;;;;;;;6.05;5.45;;;22.00;79.00;;;;;;5074702;28;20732;-80
2023/08/04 03:20:38;;;;;;;6.05;5.35;;;22.00;78.80;;;;;;5091675;28;20023;-80
2023/08/04 03:23:04;;;;;;;6.95;6.22;;;22.10;78.80;;;;;;5092541;28;20028;-80
2023/08/04 03:25:30;;;;;;;6.38;5.68;;;22.10;78.50;;;;;;5092292;28;20036;-80
2023/08/04 03:27:56;;;;;;;7.95;6.85;;;22.20;78.40;;;;;;5091049;28;20384;-80
2023/08/04 03:30:21;;;;;;;7.70;6.15;;;22.30;78.20;;;;;;5092492;28;20431;-80
2023/08/04 03:32:47;;;;;;;7.10;6.40;;;22.40;78.00;;;;;;5092599;28;20096;-80
2023/08/04 03:35:12;;;;;;;8.88;6.40;;;22.50;77.80;;;;;;5092449;28;20039;-80
2023/08/04 03:37:39;;;;;;;8.32;6.28;;;22.70;77.80;;;;;;5092460;28;20031;-80
2023/08/04 03:40:06;;;;;;;8.00;6.80;;;22.80;77.70;;;;;;5092475;28;20108;-80
2023/08/04 03:42:31;;;;;;;6.80;6.10;;;22.90;77.70;;;;;;5091024;28;20035;-80
2023/08/04 03:44:57;;;;;;;9.00;7.10;;;23.10;77.60;;;;;;5092690;28;20523;-80
2023/08/04 03:47:23;;;;;;;7.75;6.32;;;23.20;77.30;;;;;;5074114;28;20403;-80
2023/08/04 03:49:48;;;;;;;7.30;6.35;;;23.40;76.90;;;;;;5092259;28;20122;-80
2023/08/04 03:52:14;;;;;;;7.70;6.88;;;23.50;76.60;;;;;;5074126;28;20060;-80
2023/08/04 03:54:40;;;;;;;8.70;7.80;;;23.70;76.40;;;;;;5090915;28;20072;-80
2023/08/04 03:57:06;;;;;;;9.40;7.38;;;23.90;76.50;;;;;;5090460;28;20502;-80
2023/08/04 03:59:31;;;;;;;9.65;7.30;;;24.10;76.50;;;;;;5092085;28;20387;-80
2023/08/04 04:01:57;;;;;;;7.10;6.35;;;24.50;76.60;;;;;;5090284;28;20020;-80
2023/08/04 04:04:23;;;;;;;6.25;5.65;;;24.90;76.20;;;;;;5091490;28;20112;-81
2023/08/04 04:06:49;;;;;;;5.40;4.72;;;25.40;75.70;;;;;;5089094;28;20039;-80
2023/08/04 04:09:15;;;;;;;4.72;4.25;;;26.00;74.80;;;;;;5089768;28;20553;-81
2023/08/04 04:11:40;;;;;;;7.25;5.30;;;26.70;73.60;;;;;;5090298;28;20032;-80
2023/08/04 04:14:07;;;;;;;5.43;4.68;;;27.60;71.30;;;;;;5071877;28;20059;-80
2023/08/04 04:16:33;;;;;;;6.70;4.53;;;28.60;69.30;;;;;;5088808;28;20079;-80
2023/08/04 04:18:59;;;;;;;5.97;4.38;;;29.50;66.90;;;;;;5088743;28;20120;-81
2023/08/04 04:21:24;;;;;;;5.13;4.00;;;30.40;65.00;;;;;;5088656;28;20060;-81
2023/08/04 04:23:50;;;;;;;5.70;4.35;;;31.20;63.40;;;;;;5071916;28;20383;-81
2023/08/04 04:26:16;;;;;;;4.72;4.20;;;32.00;61.80;;;;;;5073350;28;20020;-81
2023/08/04 04:28:42;;;;;;;6.82;4.75;;;32.60;59.90;;;;;;5074273;28;20040;-84
2023/08/04 04:31:08;;;;;;;5.90;4.00;;;32.80;58.70;;;;;;5093819;28;20077;-85
2023/08/04 04:33:34;;;;;;;4.70;4.00;;;32.70;58.10;;;;;;5095196;28;20024;-84
2023/08/04 04:35:59;;;;;;;4.72;4.22;;;32.40;58.30;;;;;;5092330;28;20028;-86
2023/08/04 04:38:28;;;;;;;5.22;4.55;;;32.40;58.90;;;;;;5076603;28;20028;-85
2023/08/04 04:40:57;;;;;;;4.80;4.03;;;32.80;58.50;;;;;;5095608;28;20049;-85
2023/08/04 04:43:23;;;;;;;5.90;4.40;;;33.10;57.30;;;;;;5094588;28;20020;-84
2023/08/04 04:45:50;;;;;;;5.10;4.20;;;33.20;56.70;;;;;;5077552;28;20479;-85
2023/08/04 04:48:17;;;;;;;4.95;4.40;;;33.10;56.40;;;;;;5077605;28;20021;-84
2023/08/04 04:50:42;;;;;;;4.50;4.05;;;33.30;56.40;;;;;;5094124;28;20031;-85
2023/08/04 04:53:08;;;;;;;4.63;4.13;;;33.80;56.20;;;;;;5094068;28;20122;-86
2023/08/04 04:55:33;;;;;;;4.60;4.10;;;34.20;55.30;;;;;;5095418;28;20111;-85
2023/08/04 04:57:59;;;;;;;4.85;4.25;;;34.40;54.90;;;;;;5077836;28;20458;-86
2023/08/04 05:00:25;;;;;;;4.63;4.22;;;34.30;54.60;;;;;;5094170;28;20510;-86
2023/08/04 05:02:50;;;;;;;4.57;3.85;;;34.20;54.80;;;;;;5094411;28;20028;-83
2023/08/04 05:05:16;;;;;;;5.25;4.70;;;34.50;54.90;;;;;;5096100;28;20036;-82
2023/08/04 05:07:42;;;;;;;5.05;4.20;;;34.90;53.80;;;;;;5096248;28;20375;-82
2023/08/04 05:10:08;;;;;;;5.10;4.32;;;35.00;53.20;;;;;;5097166;28;20503;-82
2023/08/04 05:12:34;;;;;;;5.60;3.92;;;35.10;52.90;;;;;;5097426;28;20024;-82
2023/08/04 05:15:00;;;;;;;5.65;4.20;;;35.00;52.70;;;;;;5097922;28;20024;-82
2023/08/04 05:17:25;;;;;;;6.88;4.60;;;34.70;52.50;;;;;;5099374;28;20024;-85
2023/08/04 05:19:51;;;;;;;6.03;4.57;;;34.40;52.70;;;;;;5116974;28;20076;-87
2023/08/04 05:22:16;;;;;;;5.15;4.50;;;33.80;52.90;;;;;;5103347;28;20019;-86
2023/08/04 05:24:42;;;;;;;5.40;4.60;;;33.30;53.40;;;;;;5119091;28;20098;-88
2023/08/04 05:27:08;;;;;;;7.50;5.07;;;32.80;53.80;;;;;;5118294;28;20028;-88
2023/08/04 05:29:34;;;;;;;6.22;4.55;;;32.30;54.40;;;;;;5098951;28;20027;-88
2023/08/04 05:32:00;;;;;;;7.15;4.75;;;31.90;55.00;;;;;;5098487;28;20122;-88
2023/08/04 05:34:26;;;;;;;4.93;4.43;;;31.60;55.30;;;;;;5099143;28;20551;-88
2023/08/04 05:36:51;;;;;;;5.45;4.35;;;31.60;55.60;;;;;;5098705;28;20019;-88
2023/08/04 05:39:17;;;;;;;6.00;4.95;;;31.60;55.50;;;;;;5098852;28;20367;-88
2023/08/04 05:41:45;;;;;;;5.05;4.40;;;31.50;55.20;;;;;;5099312;28;20024;-87
2023/08/04 05:44:11;;;;;;;6.72;4.50;;;31.40;55.50;;;;;;5101298;28;20106;-90
2023/08/04 05:46:37;;;;;;;5.72;4.93;;;31.20;55.70;;;;;;5099306;28;20043;-91
2023/08/04 05:49:03;;;;;;;5.25;4.40;;;31.00;56.10;;;;;;5099331;28;20114;-91
2023/08/04 05:51:28;;;;;;;4.65;4.10;;;30.70;56.30;;;;;;5099402;28;20065;-91
2023/08/04 05:53:54;;;;;;;7.20;4.95;;;30.50;56.40;;;;;;5099434;28;20061;-90
2023/08/04 05:56:20;;;;;;;6.18;4.88;;;30.30;56.70;;;;;;5098683;28;20023;-92
2023/08/04 05:58:45;;;;;;;7.93;4.93;;;30.10;56.70;;;;;;5098635;28;20423;-91
2023/08/04 06:01:11;;;;;;;5.22;4.53;;;29.90;57.20;;;;;;5099331;28;20474;-89
2023/08/04 06:03:37;;;;;;;4.90;4.40;;;29.70;57.60;;;;;;5099156;28;20046;-91
2023/08/04 06:06:03;;;;;;;6.75;4.75;;;29.60;57.90;;;;;;5097978;28;20076;-90
2023/08/04 06:08:29;;;;;;;5.53;4.68;;;29.50;58.10;;;;;;5098994;28;20031;-91
2023/08/04 06:10:55;;;;;;;5.82;4.57;;;29.40;58.40;;;;;;5118725;28;20508;-92
2023/08/04 06:13:20;;;;;;;4.38;3.97;;;29.20;58.70;;;;;;5096107;28;20077;-90
2023/08/04 06:15:47;;;;;;;4.25;3.80;;;29.10;59.00;;;;;;5097923;28;20055;-91
2023/08/04 06:18:13;;;;;;;4.70;3.85;;;29.10;59.10;;;;;;5096725;28;20052;-89
2023/08/04 06:20:39;;;;;;;6.95;4.10;;;29.00;59.30;;;;;;5097934;28;20020;-91
2023/08/04 06:23:05;;;;;;;5.68;4.40;;;29.00;59.40;;;;;;5093423;28;20348;-91
2023/08/04 06:25:31;;;;;;;4.10;3.70;;;28.90;59.70;;;;;;5093581;28;20036;-90
2023/08/04 06:27:58;;;;;;;4.60;4.00;;;28.90;59.60;;;;;;5092527;28;20042;-90
2023/08/04 06:30:25;;;;;;;4.35;3.88;;;28.90;59.80;;;;;;5110998;28;20034;-91
2023/08/04 06:32:50;;;;;;;5.00;4.03;;;28.80;59.80;;;;;;5097545;28;20501;-91
2023/08/04 06:35:16;;;;;;;4.82;3.88;;;28.80;59.80;;;;;;5098544;28;20027;-91
2023/08/04 06:37:42;;;;;;;5.35;3.83;;;28.80;59.90;;;;;;5099009;28;20030;-92
2023/08/04 06:40:08;;;;;;;4.72;4.05;;;28.70;60.00;;;;;;5094712;28;20041;-91
2023/08/04 06:42:34;;;;;;;6.00;4.28;;;28.70;59.80;;;;;;5090797;28;20019;-91
2023/08/04 06:45:01;;;;;;;5.40;4.03;;;28.70;59.90;;;;;;5102386;27;20023;-90
2023/08/04 06:47:27;;;;;;;4.35;3.95;;;28.70;59.80;;;;;;5073668;28;20055;-90
2023/08/04 06:49:53;;;;;;;5.43;4.50;;;28.60;59.70;;;;;;5097033;28;20429;-91
2023/08/04 06:52:19;;;;;;;6.05;4.63;;;28.60;59.80;;;;;;5129101;27;20080;-90
2023/08/04 06:54:44;;;;;;;4.75;4.25;;;28.60;60.00;;;;;;5102082;27;20027;-91
2023/08/04 06:57:10;;;;;;;4.70;4.20;;;28.50;60.00;;;;;;5108955;27;20034;-91
2023/08/04 06:59:36;;;;;;;4.88;4.40;;;28.60;60.30;;;;;;5104487;28;20119;-90
2023/08/04 07:02:02;;;;;;;5.03;4.43;;;28.50;60.60;;;;;;5093171;28;20027;-84
2023/08/04 07:04:27;;;;;;;5.40;4.43;;;28.50;60.60;;;;;;5097363;27;20034;-90
2023/08/04 07:06:55;;;;;;;4.20;3.80;;;28.60;60.90;;;;;;5086594;28;20050;-84
2023/08/04 07:09:20;;;;;;;5.00;4.30;;;28.50;60.90;;;;;;5110451;27;20035;-87
2023/08/04 07:11:46;;;;;;;4.85;4.35;;;28.60;61.10;;;;;;5127180;27;20031;-88
2023/08/04 07:14:12;;;;;;;4.93;3.95;;;28.50;61.00;;;;;;5098587;28;20118;-86
2023/08/04 07:16:37;;;;;;;6.25;4.72;;;28.60;61.00;;;;;;5090077;27;20039;-87
2023/08/04 07:19:03;;;;;;;6.63;4.65;;;28.60;61.00;;;;;;5090873;27;20523;-88
2023/08/04 07:21:29;;;;;;;5.20;4.70;;;28.60;61.00;;;;;;5127733;27;20023;-86
2023/08/04 07:23:54;;;;;;;5.40;4.47;;;28.60;60.80;;;;;;5099425;27;20475;-88
2023/08/04 07:26:20;;;;;;;4.68;3.90;;;28.60;60.90;;;;;;5084523;28;20032;-88
2023/08/04 07:28:46;;;;;;;4.75;3.92;;;28.60;61.00;;;;;;5097958;28;20036;-86
2023/08/04 07:31:11;;;;;;;6.63;4.88;;;28.60;61.40;;;;;;5087396;27;20041;-87
2023/08/04 07:33:37;;;;;;;5.40;4.43;;;28.60;61.50;;;;;;5121993;27;20043;-84
2023/08/04 07:36:04;;;;;;;5.25;4.75;;;28.60;61.60;;;;;;5101605;27;20039;-84
2023/08/04 07:38:30;;;;;;;4.85;4.35;;;28.70;61.60;;;;;;5110969;27;20204;-85
2023/08/04 07:40:57;;;;;;;5.05;4.55;;;28.70;61.60;;;;;;5118171;27;20008;-84
2023/08/04 07:43:23;;;;;;;5.15;4.20;;;28.70;61.30;;;;;;5121174;27;20027;-84
2023/08/04 07:45:49;;;;;;;4.55;4.15;;;28.60;61.50;;;;;;5118070;27;20077;-83
2023/08/04 07:48:15;;;;;;;4.50;4.10;;;28.60;61.60;;;;;;5120439;27;20016;-82
2023/08/04 07:50:44;;;;;;;4.95;4.18;;;28.60;61.60;;;;;;5110589;27;20015;-83
2023/08/04 07:53:10;;;;;;;4.57;4.10;;;28.60;61.60;;;;;;5117020;27;20050;-83
2023/08/04 07:55:36;;;;;;;4.20;3.80;;;28.60;61.80;;;;;;5098154;28;20024;-85
2023/08/04 07:58:11;;;;;;;4.72;3.85;;;28.60;61.90;;;;;;5111022;28;20030;-83
2023/08/04 08:00:37;;;;;;;4.68;4.25;;;28.70;62.40;;;;;;5115156;27;20039;-85
2023/08/04 08:03:02;;;;;;;4.53;4.13;;;28.70;62.30;;;;;;5104229;27;20065;-85
2023/08/04 08:05:28;;;;;;;5.45;4.68;;;28.70;62.20;;;;;;5116542;27;20058;-84
2023/08/04 08:07:54;;;;;;;5.85;4.47;;;28.70;62.40;;;;;;5098971;28;20031;-88
2023/08/04 08:10:20;;;;;;;5.60;4.65;;;28.70;62.80;;;;;;5084746;28;20066;-87
2023/08/04 08:12:46;;;;;;;4.80;4.22;;;28.70;62.90;;;;;;5083921;28;20123;-86
2023/08/04 08:15:12;;;;;;;4.82;4.22;;;28.70;62.80;;;;;;5089903;28;20055;-86
2023/08/04 08:17:38;;;;;;;5.47;4.20;;;28.70;62.90;;;;;;5100085;28;20027;-85
2023/08/04 08:20:05;;;;;;;4.97;4.20;;;28.80;63.00;;;;;;5153631;22;20012;-84
2023/08/04 08:22:31;;;;;;;4.55;4.15;;;28.70;63.10;;;;;;5015476;28;20117;-84
2023/08/04 08:24:57;;;;;;;5.55;4.57;;;28.70;63.00;;;;;;5031146;28;20052;-84
2023/08/04 08:27:23;;;;;;;6.03;4.70;;;28.80;63.20;;;;;;5042694;28;20103;-85
2023/08/04 08:29:53;;;;;;;5.68;4.60;;;28.80;63.10;;;;;;5044683;28;20054;-82
2023/08/04 08:32:19;;;;;;;5.68;5.07;;;28.80;63.20;;;;;;5041569;28;20056;-83
2023/08/04 08:35:04;;;;;;;5.20;4.70;;;28.80;63.40;;;;;;5040566;28;20377;-87
2023/08/04 08:37:30;;;;;;;5.10;4.40;;;28.80;63.40;;;;;;5020541;28;20114;-85
2023/08/04 08:39:56;;;;;;;4.90;4.47;;;28.80;63.40;;;;;;5029857;28;20101;-86
2023/08/04 08:42:28;;;;;;;5.13;4.30;;;28.80;63.50;;;;;;5034127;28;20490;-88
2023/08/04 08:44:54;;;;;;;5.15;4.65;;;28.80;63.50;;;;;;5015850;28;20962;-86
2023/08/04 08:47:22;;;;;;;5.53;4.40;;;28.80;63.60;;;;;;5012181;28;20042;-86
2023/08/04 08:49:55;;;;;;;4.68;4.13;;;28.80;63.70;;;;;;5017288;28;20028;-85
2023/08/04 08:52:22;;;;;;;4.85;4.35;;;28.80;63.70;;;;;;5048610;28;20492;-88
2023/08/04 08:54:49;;;;;;;4.88;4.30;;;28.80;63.90;;;;;;5026002;28;20059;-86
2023/08/04 08:57:15;;;;;;;5.22;4.65;;;28.80;63.90;;;;;;5010202;28;20040;-87
2023/08/04 08:59:41;;;;;;;5.05;4.57;;;28.80;64.00;;;;;;5015949;28;20029;-88
2023/08/04 09:02:08;;;;;;;4.68;4.28;;;28.80;64.00;;;;;;5049571;28;20017;-87
2023/08/04 09:04:34;;;;;;;5.32;4.53;;;28.80;64.00;;;;;;5050488;28;20093;-86
2023/08/04 09:06:59;;;;;;;6.53;4.68;;;28.80;64.10;;;;;;5024397;28;20077;-87
2023/08/04 09:09:25;;;;;;;5.25;4.72;;;28.80;64.30;;;;;;5025245;28;20029;-86
2023/08/04 09:11:51;;;;;;;4.97;4.43;;;28.80;64.40;;;;;;5045564;28;20048;-82
2023/08/04 09:14:17;;;;;;;8.73;4.88;;;28.70;64.30;;;;;;5033705;28;20041;-86
2023/08/04 09:16:43;;;;;;;5.20;4.70;;;28.70;64.40;;;;;;5047145;28;20032;-85
2023/08/04 09:19:09;;;;;;;4.90;4.40;;;28.70;64.50;;;;;;5027696;28;21809;-87
2023/08/04 09:21:36;;;;;;;5.63;4.80;;;28.70;64.60;;;;;;5020297;28;20037;-88
2023/08/04 09:24:08;;;;;;;5.20;4.70;;;28.70;65.00;;;;;;5035023;28;20056;-84
2023/08/04 09:26:46;;;;;;;4.80;4.35;;;28.70;64.80;;;;;;5035656;28;20116;-86
2023/08/04 09:29:13;;;;;;;5.53;4.22;;;28.80;64.80;;;;;;5029981;28;20072;-87
2023/08/04 09:31:45;;;;;;;5.47;4.32;;;28.80;64.80;;;;;;5019168;28;20025;-83
2023/08/04 09:34:11;;;;;;;4.90;4.40;;;28.70;64.70;;;;;;5035020;28;20106;-87
2023/08/04 09:36:45;;;;;;;6.38;4.57;;;28.80;64.80;;;;;;5038650;28;20036;-87
2023/08/04 09:39:10;;;;;;;4.60;4.20;;;28.80;64.80;;;;;;5019140;28;20029;-86
2023/08/04 09:41:44;;;;;;;4.80;4.30;;;28.80;64.80;;;;;;5023701;28;20044;-84
2023/08/04 09:44:10;;;;;;;5.60;4.45;;;28.80;64.90;;;;;;5028841;28;20082;-85
2023/08/04 09:46:47;;;;;;;5.53;4.70;;;28.80;64.80;;;;;;5029797;28;20487;-85
2023/08/04 09:49:13;;;;;;;5.40;4.43;;;28.90;64.50;;;;;;5033240;28;20022;-83
2023/08/04 09:51:41;;;;;;;6.15;4.50;;;28.90;64.50;;;;;;5041811;28;20026;-86
2023/08/04 09:54:07;;;;;;;5.55;4.30;;;29.00;64.40;;;;;;5017638;28;20018;-79
2023/08/04 09:56:33;;;;;;;5.28;4.53;;;29.00;64.20;;;;;;5027998;28;20029;-79
2023/08/04 09:58:59;;;;;;;4.68;4.18;;;29.00;64.20;;;;;;5034063;28;20079;-81
2023/08/04 10:01:26;;;;;;;4.65;4.05;;;29.00;64.20;;;;;;5029881;28;20021;-79
2023/08/04 10:03:57;;;;;;;5.82;4.32;;;29.00;64.40;;;;;;5012524;28;20025;-80
2023/08/04 10:06:23;;;;;;;5.05;4.30;;;28.90;64.30;;;;;;5036023;28;20088;-81
2023/08/04 10:08:53;;;;;;;4.85;4.32;;;28.90;64.20;;;;;;5027457;28;20405;-78
2023/08/04 10:11:20;;;;;;;6.10;4.32;;;28.90;64.20;;;;;;5010756;28;20036;-79
2023/08/04 10:13:56;;;;;;;4.38;3.95;;;28.80;64.40;;;;;;5010869;28;20033;-78
2023/08/04 10:16:35;;;;;;;4.65;4.00;;;28.80;64.40;;;;;;5029394;28;20034;-78
2023/08/04 10:19:03;;;;;;;4.75;4.20;;;28.80;64.30;;;;;;5001382;28;20026;-80
2023/08/04 10:21:35;;;;;;;4.80;4.30;;;28.80;64.30;;;;;;5007014;28;20046;-80
2023/08/04 10:24:06;;;;;;;4.18;3.78;;;28.80;64.50;;;;;;5009857;28;20116;-79
2023/08/04 10:26:33;;;;;;;4.35;3.95;;;28.70;64.30;;;;;;5026498;28;20026;-80
2023/08/04 10:29:00;;;;;;;4.82;4.28;;;28.70;64.50;;;;;;5024139;28;20075;-80
2023/08/04 10:31:41;;;;;;;4.97;4.25;;;28.70;64.50;;;;;;5020514;28;20497;-80
2023/08/04 10:34:18;;;;;;;5.22;4.43;;;28.70;64.40;;;;;;5035471;28;20053;-79
2023/08/04 10:37:15;;;;;;;5.20;4.38;;;28.70;64.50;;;;;;5024807;28;20083;-79
2023/08/04 10:39:45;;;;;;;4.38;3.97;;;28.60;64.50;;;;;;4999484;28;20420;-79
2023/08/04 10:42:23;;;;;;;4.20;3.80;;;28.60;64.40;;;;;;5035397;28;20057;-80
2023/08/04 10:45:03;;;;;;;4.68;3.88;;;28.70;64.30;;;;;;5020227;28;20041;-80
2023/08/04 10:47:34;;;;;;;4.75;4.10;;;28.60;64.30;;;;;;5018672;28;20028;-78
2023/08/04 10:50:00;;;;;;;5.10;4.05;;;28.60;64.40;;;;;;5009470;28;20417;-81
2023/08/04 10:52:26;;;;;;;5.47;4.60;;;28.60;64.70;;;;;;5029127;28;20032;-82
2023/08/04 10:54:52;;;;;;;4.68;4.28;;;28.60;64.60;;;;;;5015063;28;20029;-81
2023/08/04 10:57:19;;;;;;;5.82;4.05;;;28.60;64.50;;;;;;5030986;28;20032;-81
2023/08/04 10:59:45;;;;;;;4.45;3.95;;;28.60;64.00;;;;;;5006017;28;20033;-81
2023/08/04 11:02:11;;;;;;;6.60;3.78;;;28.60;64.00;;;;;;5053070;28;20022;-86
2023/08/04 11:04:37;;;;;;;5.40;4.18;;;28.60;64.10;;;;;;5038146;28;20025;-86
2023/08/04 11:07:03;;;;;;;4.43;3.78;;;28.60;65.40;;;;;;5032895;28;20037;-82
2023/08/04 11:09:29;;;;;;;4.95;3.90;;;28.60;66.30;;;;;;5042731;28;20050;-86
2023/08/04 11:11:55;;;;;;;4.25;3.80;;;28.60;66.70;;;;;;5033082;28;20084;-86
2023/08/04 11:14:21;;;;;;;3.85;3.55;;;28.60;66.80;;;;;;5035005;28;20026;-87
2023/08/04 11:16:49;;;;;;;4.75;4.35;;;28.50;67.60;;;;;;5019751;28;20034;-86
2023/08/04 11:19:20;;;;;;;4.10;3.70;;;28.50;68.20;;;;;;5023499;28;20657;-87
2023/08/04 11:21:46;;;;;;;4.80;4.10;;;28.50;69.00;;;;;;5047893;28;20050;-88
2023/08/04 11:24:12;;;;;;;6.30;4.35;;;28.40;70.70;;;;;;5030258;28;20036;-89
2023/08/04 11:26:37;;;;;;;5.20;4.40;;;28.40;69.90;;;;;;5031806;28;20031;-88
2023/08/04 11:29:04;;;;;;;4.95;4.45;;;28.40;69.60;;;;;;5025708;28;20041;-81
2023/08/04 11:31:32;;;;;;;6.10;4.40;;;28.30;69.50;;;;;;5015153;28;20032;-86
2023/08/04 11:33:58;;;;;;;5.82;4.97;;;28.20;70.30;;;;;;5043074;28;20033;-87
2023/08/04 11:36:24;;;;;;;6.07;5.13;;;28.30;71.90;;;;;;5046545;28;20037;-87
2023/08/04 11:38:50;;;;;;;5.22;4.72;;;28.20;72.20;;;;;;5023814;28;20025;-86
2023/08/04 11:41:16;;;;;;;6.78;5.15;;;28.20;72.70;;;;;;5045400;28;20447;-87
2023/08/04 11:43:43;;;;;;;5.15;4.65;;;28.10;73.30;;;;;;5018256;28;20120;-86
2023/08/04 11:46:08;;;;;;;5.88;5.28;;;28.10;72.80;;;;;;5023394;28;20037;-80
2023/08/04 11:48:35;;;;;;;5.57;4.63;;;28.00;73.20;;;;;;5013895;28;20036;-80
2023/08/04 11:51:01;;;;;;;4.93;4.43;;;28.00;73.50;;;;;;5009221;28;20029;-79
2023/08/04 11:53:27;;;;;;;5.18;4.68;;;27.90;73.80;;;;;;5016774;28;20091;-80
2023/08/04 11:56:00;;;;;;;4.55;3.90;;;27.90;74.50;;;;;;5024282;28;20033;-80
2023/08/04 11:58:33;;;;;;;4.97;4.47;;;27.90;74.70;;;;;;5041892;28;20063;-80
2023/08/04 12:00:58;;;;;;;4.85;4.15;;;27.90;74.50;;;;;;5022409;28;20099;-80
2023/08/04 12:03:24;;;;;;;5.18;4.68;;;27.80;74.50;;;;;;5024021;28;20025;-80
2023/08/04 12:05:51;;;;;;;5.28;4.72;;;27.80;74.50;;;;;;5009879;28;20434;-80
2023/08/04 12:08:16;;;;;;;5.00;4.50;;;27.80;74.80;;;;;;5014605;28;20024;-80
2023/08/04 12:10:43;;;;;;;4.80;4.30;;;27.80;75.00;;;;;;5013349;28;20074;-81
2023/08/04 12:13:28;;;;;;;5.63;4.30;;;27.70;75.20;;;;;;5007582;28;20068;-80
2023/08/04 12:15:54;;;;;;;5.35;4.50;;;27.70;75.40;;;;;;5014707;28;20501;-81
2023/08/04 12:18:24;;;;;;;5.88;4.90;;;27.70;74.90;;;;;;5023523;28;20112;-81
2023/08/04 12:20:50;;;;;;;4.63;4.22;;;27.70;74.90;;;;;;5012611;28;20050;-81
2023/08/04 12:23:15;;;;;;;5.30;4.80;;;27.70;74.90;;;;;;5028265;28;20079;-81
2023/08/04 12:25:41;;;;;;;5.10;4.60;;;27.70;75.60;;;;;;5033050;28;20024;-81
2023/08/04 12:28:07;;;;;;;5.18;4.50;;;27.70;75.60;;;;;;5025746;28;20033;-81
2023/08/04 12:30:32;;;;;;;5.60;5.10;;;27.70;75.20;;;;;;5014438;28;20059;-81
2023/08/04 12:32:58;;;;;;;5.47;4.97;;;27.60;74.30;;;;;;5032493;28;20405;-81
2023/08/04 12:35:24;;;;;;;5.05;4.55;;;27.60;74.10;;;;;;5031362;28;20507;-81
2023/08/04 12:37:49;;;;;;;5.75;4.78;;;27.60;73.80;;;;;;5023673;28;20033;-82
2023/08/04 12:40:15;;;;;;;4.97;4.43;;;27.60;73.80;;;;;;5023872;28;20041;-82
2023/08/04 12:42:40;;;;;;;7.15;4.75;;;27.60;73.90;;;;;;5032947;28;20088;-81
2023/08/04 12:45:06;;;;;;;5.25;4.75;;;27.60;73.40;;;;;;5006878;28;20029;-82
2023/08/04 12:47:32;;;;;;;5.28;4.78;;;27.70;72.80;;;;;;5008233;28;21050;-81